Worthington, Missouri
Current Conditions -  °F | °C
As of 5:50 PM on Monday 22 Dec 2014 (Local Time) from KTVK Reporting Station
Light Rain Light Rain  
Wind Chill: 34°   Ceiling: 100
Heat Index: 39°   Visibility: 10mi
Dew Point: 39°   Wind: 7mph
Humidity: 100%   Direction: 100°E
Pressure: 29.47"   Gusts: NA
Location:  40.41°N, 92.69°W
Report Text: KTVK 222350Z AUTO 10006KT 10SM -RA OVC001 04/04 A2947 RMK AO2 P0003
Loading
Personal Weather Stations






























Interactive Weather Map New forecast layout! Learn more

10-Day Weather Forecast

Advertisements
Track Severe Weather on mobile